Time;durP1;ratioP1;P1;durP2;ratioP2;P2;SDS_P1;SDS_P2;PMS_P1;PMS_P2;Temp;Humidity;BMP_temperature;BMP_pressure;BME280_temperature;BME280_humidity;BME280_pressure;Samples;Min_cycle;Max_cycle;Signal;HPM_P1;HPM_P2
2024/01/18 00:02:22;;;;;;;24.80;14.00;;;;;;;-6.03;73.73;99002.39;105936;1254;70768;-76
2024/01/18 00:04:49;;;;;;;26.60;14.60;;;;;;;-5.97;73.82;98988.11;106037;1253;72673;-77
2024/01/18 00:07:17;;;;;;;24.20;14.20;;;;;;;-6.00;73.91;98985.69;106247;1258;60445;-77
2024/01/18 00:09:45;;;;;;;28.50;14.90;;;;;;;-6.01;74.16;98976.95;106122;1258;60524;-77
2024/01/18 00:12:12;;;;;;;24.20;14.20;;;;;;;-6.04;73.86;98965.20;106087;1253;73868;-76
2024/01/18 00:14:39;;;;;;;24.10;14.80;;;;;;;-6.04;74.26;98943.53;105980;1253;69938;-78
2024/01/18 00:17:07;;;;;;;27.70;15.80;;;;;;;-6.06;74.58;98928.42;105730;1253;71357;-76
2024/01/18 00:19:34;;;;;;;24.20;13.50;;;;;;;-6.04;74.68;98922.32;105693;1253;61760;-75
2024/01/18 00:22:02;;;;;;;25.90;14.00;;;;;;;-5.94;75.18;98918.82;105713;1254;60541;-75
2024/01/18 00:24:29;;;;;;;24.30;14.20;;;;;;;-5.90;74.96;98901.15;105811;1258;73851;-75
2024/01/18 00:26:57;;;;;;;26.10;13.70;;;;;;;-5.96;75.65;98897.55;105897;1254;68882;-76
2024/01/18 00:29:25;;;;;;;25.40;13.80;;;;;;;-6.02;75.90;98897.01;106027;1253;71437;-77
2024/01/18 00:31:52;;;;;;;26.80;15.10;;;;;;;-6.05;76.31;98898.05;105938;1253;60530;-76
2024/01/18 00:34:19;;;;;;;27.30;13.50;;;;;;;-6.08;76.41;98889.40;105766;1258;60423;-77
2024/01/18 00:36:47;;;;;;;25.00;13.40;;;;;;;-5.98;76.26;98881.11;105668;1254;72690;-78
2024/01/18 00:39:18;;;;;;;24.50;13.40;;;;;;;-5.87;76.59;98869.41;105912;1254;69914;-76
2024/01/18 00:41:49;;;;;;;25.20;13.90;;;;;;;-5.86;76.43;98859.01;108719;1253;72205;-78
2024/01/18 00:44:17;;;;;;;25.50;15.10;;;;;;;-5.88;76.60;98846.22;108148;1253;60457;-77
2024/01/18 00:46:44;;;;;;;27.20;15.00;;;;;;;-5.89;77.02;98837.48;106612;1255;60398;-76
2024/01/18 00:49:11;;;;;;;26.30;14.70;;;;;;;-5.92;77.39;98832.13;106320;1253;72541;-77
2024/01/18 00:51:39;;;;;;;24.60;14.30;;;;;;;-5.95;77.64;98823.02;108151;1253;68794;-78
2024/01/18 00:54:07;;;;;;;28.00;14.10;;;;;;;-5.87;78.17;98822.52;108253;1253;71445;-77
2024/01/18 00:56:34;;;;;;;22.00;13.40;;;;;;;-5.77;77.91;98811.21;105814;1254;60544;-77
2024/01/18 00:59:02;;;;;;;22.70;13.10;;;;;;;-5.78;78.40;98802.33;105910;1253;61162;-77
2024/01/18 01:01:29;;;;;;;22.10;13.00;;;;;;;-5.81;78.89;98800.77;105790;1253;73798;-77
2024/01/18 01:03:56;;;;;;;22.50;13.40;;;;;;;-5.86;79.01;98798.46;105716;1253;70297;-76
2024/01/18 01:06:24;;;;;;;24.00;13.90;;;;;;;-5.90;79.34;98784.61;105932;1255;71443;-77
2024/01/18 01:08:51;;;;;;;23.50;13.80;;;;;;;-5.89;79.46;98768.66;105948;1253;61763;-77
2024/01/18 01:11:19;;;;;;;22.10;14.00;;;;;;;-5.80;79.69;98762.44;105859;1254;60448;-74
2024/01/18 01:13:47;;;;;;;27.20;15.10;;;;;;;-5.80;79.79;98743.79;105707;1254;72630;-77
2024/01/18 01:16:14;;;;;;;25.20;13.70;;;;;;;-5.83;79.92;98731.95;105798;1258;69293;-75
2024/01/18 01:18:42;;;;;;;28.70;15.10;;;;;;;-5.87;80.40;98723.72;105796;1256;71184;-75
2024/01/18 01:21:10;;;;;;;23.70;14.30;;;;;;;-5.90;80.31;98709.05;105925;1253;60429;-77
2024/01/18 01:23:41;;;;;;;24.90;13.80;;;;;;;-5.92;80.49;98691.95;105843;1254;60490;-75
2024/01/18 01:26:09;;;;;;;22.90;13.40;;;;;;;-5.84;80.63;98686.95;105776;1253;72726;-77
2024/01/18 01:28:36;;;;;;;22.00;14.30;;;;;;;-5.78;80.66;98679.06;105612;1253;70138;-77
2024/01/18 01:31:04;;;;;;;27.80;13.70;;;;;;;-5.84;80.82;98678.48;105727;1256;72484;-78
2024/01/18 01:33:31;;;;;;;25.30;13.90;;;;;;;-5.88;81.33;98674.99;105957;1258;60477;-77
2024/01/18 01:35:59;;;;;;;24.80;13.80;;;;;;;-5.93;81.51;98665.96;106188;1254;60449;-77
2024/01/18 01:38:27;;;;;;;23.90;14.20;;;;;;;-5.93;81.30;98671.83;107252;1254;73878;-77
2024/01/18 01:40:54;;;;;;;22.00;13.70;;;;;;;-5.80;81.43;98669.65;108924;1254;69183;-77
2024/01/18 01:43:23;;;;;;;23.00;13.70;;;;;;;-5.71;81.69;98664.30;108191;1253;71370;-77
2024/01/18 01:45:50;;;;;;;24.00;13.90;;;;;;;-5.70;81.68;98658.42;106401;1253;60451;-77
2024/01/18 01:48:17;;;;;;;25.50;14.80;;;;;;;-5.73;81.88;98657.16;106200;1253;60321;-77
2024/01/18 01:50:46;;;;;;;24.90;13.90;;;;;;;-5.74;81.89;98649.78;106583;1254;72248;-77
2024/01/18 01:53:14;;;;;;;26.10;15.00;;;;;;;-5.72;82.12;98650.70;107036;1254;70120;-75
2024/01/18 01:55:41;;;;;;;25.30;14.50;;;;;;;-5.62;81.84;98640.62;106745;1253;71421;-77
2024/01/18 01:58:14;;;;;;;24.40;15.20;;;;;;;-5.49;81.81;98627.78;105663;1253;60503;-77
2024/01/18 02:00:42;;;;;;;23.60;15.10;;;;;;;-5.47;81.83;98625.23;105705;1253;60549;-76
2024/01/18 02:03:10;;;;;;;29.10;15.70;;;;;;;-5.49;81.91;98607.42;105650;1254;72340;-75
2024/01/18 02:05:37;;;;;;;22.80;14.20;;;;;;;-5.52;82.28;98601.39;105744;1253;70637;-75
2024/01/18 02:08:05;;;;;;;27.60;13.90;;;;;;;-5.55;82.24;98599.50;105574;1253;71244;-75
2024/01/18 02:10:33;;;;;;;27.10;13.70;;;;;;;-5.56;82.32;98597.45;105775;1257;60503;-77
2024/01/18 02:13:00;;;;;;;24.50;15.00;;;;;;;-5.46;82.42;98580.65;105796;1253;60393;-77
2024/01/18 02:15:28;;;;;;;21.20;12.20;;;;;;;-5.42;82.28;98569.02;105878;1253;72583;-77
2024/01/18 02:17:56;;;;;;;22.50;13.90;;;;;;;-5.46;82.54;98563.94;105687;1260;68066;-77
2024/01/18 02:20:23;;;;;;;28.80;14.30;;;;;;;-5.50;82.78;98548.45;105788;1253;72524;-76
2024/01/18 02:22:50;;;;;;;24.40;14.70;;;;;;;-5.52;82.93;98547.73;105756;1253;60450;-77
2024/01/18 02:25:26;;;;;;;25.10;14.80;;;;;;;-5.53;83.17;98543.27;105542;1253;60553;-75
2024/01/18 02:27:56;;;;;;;25.00;14.50;;;;;;;-5.43;83.05;98533.70;105728;1253;73961;-76
2024/01/18 02:30:24;;;;;;;22.60;13.80;;;;;;;-5.29;83.01;98518.35;105886;1258;69157;-76
2024/01/18 02:32:51;;;;;;;31.20;15.50;;;;;;;-5.28;83.23;98510.14;105817;1255;71400;-76
2024/01/18 02:35:19;;;;;;;26.20;15.60;;;;;;;-5.29;83.74;98491.06;106552;1253;60330;-75
2024/01/18 02:37:46;;;;;;;24.20;13.50;;;;;;;-5.29;83.99;98487.95;108897;1253;60309;-74
2024/01/18 02:40:14;;;;;;;25.80;14.80;;;;;;;-5.28;84.39;98475.14;107629;1254;72641;-73
2024/01/18 02:42:41;;;;;;;29.10;14.50;;;;;;;-5.17;84.60;98464.57;105993;1254;68711;-76
2024/01/18 02:45:09;;;;;;;20.30;13.80;;;;;;;-5.04;84.30;98456.80;105816;1256;71387;-74
2024/01/18 02:47:36;;;;;;;21.70;13.50;;;;;;;-5.01;84.78;98438.65;105432;1253;60496;-74
2024/01/18 02:50:05;;;;;;;28.30;16.20;;;;;;;-5.02;85.33;98428.00;105837;1254;60604;-75
2024/01/18 03:01:11;;;;;;;21.80;13.90;;;;;;;-4.72;86.12;98424.45;105715;1254;74026;-75
2024/01/18 03:03:39;;;;;;;23.50;14.70;;;;;;;-4.72;86.67;98423.26;105624;1257;328854;-75
2024/01/18 03:07:36;;;;;;;25.50;14.40;;;;;;;-4.69;87.07;98415.93;102746;1293;600377;-76
2024/01/18 03:10:05;;;;;;;26.50;14.80;;;;;;;-4.67;87.28;98401.13;104956;1266;61637;-76
2024/01/18 03:12:37;;;;;;;26.30;15.60;;;;;;;-4.53;87.45;98394.97;105397;1262;60113;-76
2024/01/18 03:15:07;;;;;;;24.90;15.00;;;;;;;-4.39;87.30;98395.41;105507;1258;73128;-75
2024/01/18 03:17:35;;;;;;;26.80;16.60;;;;;;;-4.39;87.77;98386.42;105558;1259;69152;-76
2024/01/18 03:20:07;;;;;;;24.40;16.10;;;;;;;-4.40;88.45;98384.40;105586;1256;72745;-74
2024/01/18 03:22:37;;;;;;;32.00;17.10;;;;;;;-4.38;88.76;98383.75;105833;1253;61370;-75
2024/01/18 03:25:05;;;;;;;28.90;16.20;;;;;;;-4.27;88.72;98377.78;106545;1253;59422;-74
2024/01/18 03:27:32;;;;;;;25.70;15.80;;;;;;;-4.14;88.92;98391.55;107108;1257;72320;-77
2024/01/18 03:30:00;;;;;;;25.70;16.10;;;;;;;-4.11;89.29;98364.39;106389;1254;68881;-76
2024/01/18 03:32:28;;;;;;;29.10;17.40;;;;;;;-4.10;89.55;98366.27;106167;1254;71269;-76
2024/01/18 03:34:55;;;;;;;26.40;17.30;;;;;;;-4.09;90.33;98353.90;107107;1254;60961;-74
2024/01/18 03:37:23;;;;;;;27.00;16.10;;;;;;;-3.97;90.27;98331.58;108875;1253;58723;-76
2024/01/18 03:39:50;;;;;;;24.10;15.30;;;;;;;-3.82;90.24;98331.33;108150;1257;72008;-77
2024/01/18 03:42:18;;;;;;;26.20;16.40;;;;;;;-3.77;90.93;98326.30;106276;1253;70387;-76
2024/01/18 03:44:45;;;;;;;26.50;16.80;;;;;;;-3.72;91.23;98314.58;106230;1253;72419;-75
2024/01/18 03:47:13;;;;;;;31.30;16.40;;;;;;;-3.68;91.88;98330.14;106018;1257;59761;-77
2024/01/18 03:49:41;;;;;;;27.30;16.90;;;;;;;-3.56;92.08;98312.62;105875;1257;59578;-78
2024/01/18 03:52:10;;;;;;;26.20;16.40;;;;;;;-3.41;91.76;98314.80;105998;1256;72948;-79
2024/01/18 03:54:39;;;;;;;29.60;18.70;;;;;;;-3.37;92.25;98303.27;105966;1257;70018;-78
2024/01/18 03:57:06;;;;;;;26.70;16.40;;;;;;;-3.36;92.57;98324.33;106088;1253;71646;-77
2024/01/18 03:59:34;;;;;;;34.20;17.90;;;;;;;-3.36;92.95;98295.22;105770;1254;60868;-77
2024/01/18 04:02:01;;;;;;;26.50;17.00;;;;;;;-3.25;92.79;98304.11;105879;1253;59713;-79
2024/01/18 04:04:29;;;;;;;27.20;17.70;;;;;;;-3.12;92.81;98279.75;105822;1257;73164;-79
2024/01/18 04:06:56;;;;;;;27.10;18.20;;;;;;;-3.09;92.96;98280.05;105825;1257;68520;-79
2024/01/18 04:09:24;;;;;;;30.90;19.10;;;;;;;-3.09;93.51;98273.66;105988;1253;72647;-79
2024/01/18 04:11:51;;;;;;;28.80;17.90;;;;;;;-3.09;93.65;98273.11;105802;1254;59747;-79
2024/01/18 04:14:19;;;;;;;28.80;17.50;;;;;;;-2.96;93.61;98277.34;105964;1253;59428;-78
2024/01/18 04:16:47;;;;;;;27.40;17.80;;;;;;;-2.84;93.50;98272.55;105926;1253;72383;-79
2024/01/18 04:19:14;;;;;;;28.10;17.70;;;;;;;-2.81;93.76;98267.48;105793;1253;70137;-79
2024/01/18 04:21:43;;;;;;;31.60;20.40;;;;;;;-2.82;94.17;98259.95;105924;1257;73591;-78
2024/01/18 04:24:11;;;;;;;30.50;18.50;;;;;;;-2.83;94.42;98262.48;106027;1260;59662;-78
2024/01/18 04:26:39;;;;;;;30.60;18.30;;;;;;;-2.74;94.52;98243.89;106138;1254;60031;-77
2024/01/18 04:29:06;;;;;;;28.60;18.80;;;;;;;-2.62;94.26;98240.91;106233;1259;72906;-78
2024/01/18 04:31:34;;;;;;;31.50;19.80;;;;;;;-2.60;94.06;98237.24;106881;1253;69201;-78
2024/01/18 04:34:01;;;;;;;35.20;21.60;;;;;;;-2.63;94.79;98239.91;108655;1254;71977;-79
2024/01/18 04:36:29;;;;;;;30.30;19.50;;;;;;;-2.64;95.03;98229.60;107897;1253;59648;-78
2024/01/18 04:38:56;;;;;;;30.60;19.60;;;;;;;-2.53;94.96;98244.52;107693;1253;60035;-78
2024/01/18 04:41:24;;;;;;;33.50;20.10;;;;;;;-2.41;94.62;98235.20;106669;1255;73000;-80
2024/01/18 04:43:51;;;;;;;33.10;21.00;;;;;;;-2.38;95.05;98228.95;107155;1253;71538;-78
2024/01/18 04:46:20;;;;;;;34.10;20.20;;;;;;;-2.40;95.33;98229.04;106767;1257;71593;-78
2024/01/18 04:48:47;;;;;;;34.10;20.50;;;;;;;-2.39;95.66;98215.63;106716;1253;60872;-79
2024/01/18 04:51:15;;;;;;;36.40;21.40;;;;;;;-2.29;95.49;98216.42;106453;1256;59567;-79
2024/01/18 04:53:43;;;;;;;35.80;20.90;;;;;;;-2.18;95.43;98223.96;106138;1260;71886;-79
2024/01/18 04:56:10;;;;;;;39.70;21.90;;;;;;;-2.16;95.66;98223.64;106215;1257;70239;-79
2024/01/18 04:58:38;;;;;;;38.90;23.50;;;;;;;-2.18;96.19;98219.17;106371;1253;72780;-79
2024/01/18 05:01:08;;;;;;;31.30;19.60;;;;;;;-2.18;96.42;98208.06;106242;1253;60001;-78
2024/01/18 05:03:36;;;;;;;36.00;21.20;;;;;;;-2.09;96.53;98195.16;106489;1253;60926;-77
2024/01/18 05:06:04;;;;;;;35.00;21.10;;;;;;;-1.99;96.21;98191.07;106607;1253;72070;-77
2024/01/18 05:08:32;;;;;;;35.20;21.00;;;;;;;-1.97;96.50;98188.98;106543;1257;69317;-78
2024/01/18 05:11:00;;;;;;;38.20;22.70;;;;;;;-1.96;97.08;98179.02;107718;1253;72693;-78
2024/01/18 05:13:27;;;;;;;33.30;20.80;;;;;;;-1.92;97.46;98167.10;106266;1254;59770;-79
2024/01/18 05:15:55;;;;;;;34.20;20.30;;;;;;;-1.80;97.19;98153.52;106014;1253;59766;-80
2024/01/18 05:18:22;;;;;;;36.50;20.70;;;;;;;-1.71;97.22;98142.38;106063;1253;72792;-81
2024/01/18 05:20:50;;;;;;;42.70;23.30;;;;;;;-1.70;97.67;98138.65;105984;1253;70341;-79
2024/01/18 05:23:18;;;;;;;42.00;22.80;;;;;;;-1.70;98.11;98137.47;105869;1258;72803;-80
2024/01/18 05:25:45;;;;;;;36.10;22.80;;;;;;;-1.67;98.40;98148.13;105859;1254;60886;-79
2024/01/18 05:28:12;;;;;;;33.50;21.00;;;;;;;-1.52;98.24;98151.75;106239;1253;59551;-77
2024/01/18 05:30:40;;;;;;;35.20;22.40;;;;;;;-1.43;98.35;98135.14;107027;1253;71505;-77
2024/01/18 05:33:07;;;;;;;40.80;23.40;;;;;;;-1.41;98.58;98125.73;108664;1253;70737;-78
2024/01/18 05:35:35;;;;;;;34.50;21.20;;;;;;;-1.38;99.07;98123.23;107997;1258;71471;-77
2024/01/18 05:38:03;;;;;;;33.90;21.30;;;;;;;-1.24;99.43;98120.52;106201;1256;59721;-78
2024/01/18 05:40:31;;;;;;;32.50;20.30;;;;;;;-1.09;99.60;98115.00;107752;1254;59983;-77
2024/01/18 05:42:58;;;;;;;35.10;21.90;;;;;;;-1.03;99.81;98110.31;107564;1254;71775;-78
2024/01/18 05:45:26;;;;;;;37.60;22.80;;;;;;;-1.00;99.96;98117.02;105953;1255;70015;-79
2024/01/18 05:47:54;;;;;;;38.20;20.70;;;;;;;-0.93;100.00;98107.92;106144;1253;70679;-79
2024/01/18 05:50:23;;;;;;;32.90;20.50;;;;;;;-0.77;100.00;98103.73;108167;1254;59617;-77
2024/01/18 05:52:50;;;;;;;35.50;22.10;;;;;;;-0.66;100.00;98106.33;108137;1254;59582;-80
2024/01/18 05:55:18;;;;;;;39.20;23.20;;;;;;;-0.62;100.00;98112.64;107813;1258;71771;-78
2024/01/18 05:57:45;;;;;;;34.90;20.60;;;;;;;-0.56;100.00;98109.43;107620;1253;68247;-78
2024/01/18 06:00:13;;;;;;;33.90;21.60;;;;;;;-0.39;100.00;98112.31;105941;1257;72742;-77
2024/01/18 06:02:41;;;;;;;34.40;21.70;;;;;;;-0.23;100.00;98114.48;105929;1254;59563;-80
2024/01/18 06:05:09;;;;;;;35.40;20.70;;;;;;;-0.15;100.00;98102.47;105916;1253;60002;-80
2024/01/18 06:07:39;;;;;;;32.00;19.60;;;;;;;-0.11;100.00;98108.20;107268;1253;71641;-79
2024/01/18 06:10:07;;;;;;;30.00;18.50;;;;;;;0.06;100.00;98097.65;107952;1258;68836;-80
2024/01/18 06:12:34;;;;;;;26.90;16.60;;;;;;;0.22;100.00;98083.20;108312;1253;72335;-78
2024/01/18 06:15:02;;;;;;;25.70;16.60;;;;;;;0.31;100.00;98072.46;106337;1253;59645;-81
2024/01/18 06:17:30;;;;;;;22.50;15.30;;;;;;;0.40;100.00;98064.44;106050;1260;59589;-83
2024/01/18 06:19:58;;;;;;;24.10;15.00;;;;;;;0.59;100.00;98062.02;106359;1253;72725;-85
2024/01/18 06:22:25;;;;;;;25.40;15.80;;;;;;;0.74;100.00;98069.60;106518;1253;68756;-81
2024/01/18 06:24:54;;;;;;;19.40;12.60;;;;;;;0.83;100.00;98057.50;108636;1253;72656;-85
2024/01/18 06:27:22;;;;;;;17.90;12.80;;;;;;;1.01;100.00;98070.04;107039;1253;59661;-83
2024/01/18 06:29:50;;;;;;;20.30;14.00;;;;;;;1.23;100.00;98067.23;107711;1253;59189;-84
2024/01/18 06:32:17;;;;;;;19.20;13.80;;;;;;;1.33;100.00;98055.17;109289;1253;71832;-84
2024/01/18 06:34:45;;;;;;;17.60;11.60;;;;;;;1.43;100.00;98056.63;108535;1253;68595;-80
2024/01/18 06:37:12;;;;;;;17.30;12.70;;;;;;;1.64;100.00;98042.09;107330;1253;73183;-81
2024/01/18 06:39:40;;;;;;;17.70;12.70;;;;;;;1.78;100.00;98059.67;108552;1253;59247;-83
2024/01/18 06:42:08;;;;;;;16.40;11.50;;;;;;;1.83;100.00;98049.09;106585;1253;62464;-85
2024/01/18 06:44:35;;;;;;;17.30;11.30;;;;;;;1.90;100.00;98050.11;106368;1256;71869;-85
2024/01/18 06:47:03;;;;;;;14.50;10.70;;;;;;;2.04;100.00;98036.14;106214;1258;68898;-84
2024/01/18 06:49:31;;;;;;;19.10;11.70;;;;;;;2.08;100.00;98038.11;106211;1258;74832;-86
2024/01/18 06:51:59;;;;;;;15.10;10.90;;;;;;;2.09;100.00;98031.40;106022;1258;59909;-81
2024/01/18 06:54:26;;;;;;;15.40;11.70;;;;;;;2.17;100.00;98047.39;105643;1253;60110;-79
2024/01/18 06:56:54;;;;;;;15.10;11.00;;;;;;;2.21;100.00;98045.89;105591;1253;72062;-79
2024/01/18 06:59:22;;;;;;;14.70;9.60;;;;;;;2.21;100.00;98035.88;105589;1253;70531;-78
2024/01/18 07:01:49;;;;;;;15.60;11.50;;;;;;;2.27;100.00;98038.20;105781;1258;71588;-78
2024/01/18 07:04:17;;;;;;;17.50;12.10;;;;;;;2.25;100.00;98031.89;105783;1258;60503;-77
2024/01/18 07:06:44;;;;;;;16.50;12.00;;;;;;;2.21;100.00;98038.13;105989;1253;62261;-77
2024/01/18 07:09:12;;;;;;;19.80;12.40;;;;;;;2.26;100.00;98038.31;106004;1253;72108;-77
2024/01/18 07:11:40;;;;;;;16.20;11.40;;;;;;;2.32;100.00;98049.22;105823;1258;70505;-78
2024/01/18 07:14:07;;;;;;;19.50;12.90;;;;;;;2.32;100.00;98024.69;105737;1258;71566;-78
2024/01/18 07:16:35;;;;;;;16.00;11.60;;;;;;;2.28;100.00;98027.19;105865;1257;60834;-77
2024/01/18 07:19:02;;;;;;;14.40;12.00;;;;;;;2.33;100.00;98024.41;105897;1253;60420;-79
2024/01/18 07:21:30;;;;;;;17.20;12.30;;;;;;;2.37;100.00;98027.85;106307;1253;73729;-79
2024/01/18 07:23:58;;;;;;;17.50;12.80;;;;;;;2.33;100.00;98023.52;106237;1258;68864;-78
2024/01/18 07:26:25;;;;;;;16.30;12.80;;;;;;;2.35;100.00;98010.93;106178;1253;74832;-78
2024/01/18 07:28:53;;;;;;;14.80;12.00;;;;;;;2.42;100.00;98009.27;107455;1253;61158;-79
2024/01/18 07:31:20;;;;;;;15.70;11.90;;;;;;;2.44;100.00;97998.49;108970;1251;60452;-78
2024/01/18 07:33:50;;;;;;;14.10;11.50;;;;;;;2.45;100.00;98012.41;107884;1258;72426;-80
2024/01/18 07:36:18;;;;;;;14.90;10.80;;;;;;;2.49;100.00;98008.10;106447;1253;70002;-79
2024/01/18 07:38:46;;;;;;;16.60;11.20;;;;;;;2.57;100.00;98001.67;106327;1253;72432;-79
2024/01/18 07:41:13;;;;;;;18.80;12.60;;;;;;;2.58;100.00;98017.73;106018;1253;60470;-79
2024/01/18 07:43:41;;;;;;;16.30;12.20;;;;;;;2.52;100.00;98015.10;106745;1259;60426;-79
2024/01/18 07:46:08;;;;;;;17.90;12.20;;;;;;;2.56;99.99;98013.80;106097;1253;75565;-80
2024/01/18 07:48:36;;;;;;;15.10;11.80;;;;;;;2.63;99.80;98001.46;106031;1259;68714;-79
2024/01/18 07:51:04;;;;;;;16.10;13.20;;;;;;;2.64;99.72;97987.67;106082;1253;71386;-79
2024/01/18 07:53:31;;;;;;;15.90;11.90;;;;;;;2.60;99.68;97980.08;106261;1259;60531;-80
2024/01/18 07:55:58;;;;;;;16.20;11.50;;;;;;;2.63;99.49;97986.23;106221;1256;60435;-80
2024/01/18 07:58:26;;;;;;;15.50;11.60;;;;;;;2.70;99.24;97990.04;105911;1253;73841;-79
2024/01/18 08:00:53;;;;;;;14.70;12.50;;;;;;;2.68;99.43;97976.63;105686;1253;70569;-79
2024/01/18 08:03:21;;;;;;;16.50;12.40;;;;;;;2.62;99.44;97976.72;105882;1256;71913;-78
2024/01/18 08:05:49;;;;;;;17.00;11.80;;;;;;;2.67;99.37;97976.23;107924;1253;60870;-86
2024/01/18 08:08:16;;;;;;;13.90;11.30;;;;;;;2.74;98.82;97976.65;108735;1253;60410;-86
2024/01/18 08:10:44;;;;;;;16.20;12.80;;;;;;;2.79;98.50;97976.16;107591;1253;72570;-86
2024/01/18 08:13:13;;;;;;;16.60;12.90;;;;;;;2.75;98.54;97983.75;106405;1253;71347;-84
2024/01/18 08:15:41;;;;;;;15.00;11.70;;;;;;;2.78;98.48;97976.96;106276;1253;70845;-84
2024/01/18 08:18:08;;;;;;;14.60;12.20;;;;;;;2.83;98.34;97978.36;106679;1258;60924;-83
2024/01/18 08:20:37;;;;;;;17.90;12.60;;;;;;;2.80;98.00;97979.71;107520;1253;60818;-84
2024/01/18 08:23:05;;;;;;;17.30;13.00;;;;;;;2.81;97.96;97974.03;107290;1251;73830;-82
2024/01/18 08:25:32;;;;;;;15.10;11.60;;;;;;;2.87;97.66;97984.05;108041;1253;69640;-83
2024/01/18 08:28:00;;;;;;;18.90;14.20;;;;;;;2.91;97.32;97967.31;109019;1253;72352;-83
2024/01/18 08:30:27;;;;;;;18.50;13.60;;;;;;;2.89;97.26;97958.47;108758;1253;59694;-85
2024/01/18 08:32:55;;;;;;;16.90;12.60;;;;;;;2.89;97.23;97963.48;107283;1254;60553;-83
2024/01/18 08:35:23;;;;;;;16.50;11.70;;;;;;;2.99;97.11;97956.23;108028;1252;72699;-81
2024/01/18 08:37:52;;;;;;;17.30;12.00;;;;;;;3.04;96.84;97968.24;106408;1253;70902;-86
2024/01/18 08:40:20;;;;;;;19.30;12.80;;;;;;;3.00;96.70;97946.80;107573;1253;73089;-86
2024/01/18 08:42:48;;;;;;;15.40;11.80;;;;;;;3.02;96.64;97951.75;107462;1253;60364;-88
2024/01/18 08:45:15;;;;;;;16.50;13.50;;;;;;;3.08;96.32;97953.88;106813;1253;61073;-86
2024/01/18 08:47:43;;;;;;;15.80;12.40;;;;;;;3.05;96.28;97946.60;106577;1253;73790;-85
2024/01/18 08:50:12;;;;;;;17.50;13.20;;;;;;;3.01;96.19;97943.59;106786;1253;70277;-85
2024/01/18 08:52:39;;;;;;;16.60;12.70;;;;;;;3.07;96.02;97939.48;106327;1253;72984;-85
2024/01/18 08:55:08;;;;;;;16.00;12.30;;;;;;;3.11;95.65;97948.79;106388;1261;61772;-86
2024/01/18 08:57:35;;;;;;;18.70;13.90;;;;;;;3.11;95.80;97948.77;106679;1257;60352;-84
2024/01/18 09:00:04;;;;;;;18.60;13.40;;;;;;;3.05;95.87;97944.54;106653;1257;76072;-81
2024/01/18 09:02:32;;;;;;;14.30;11.90;;;;;;;3.06;95.83;97948.86;106882;1253;71495;-81
2024/01/18 09:04:59;;;;;;;16.30;13.00;;;;;;;3.10;95.16;97945.02;107608;1253;71235;-83
2024/01/18 09:07:27;;;;;;;15.60;13.00;;;;;;;3.11;94.93;97926.01;106336;1258;61811;-82
2024/01/18 09:09:55;;;;;;;15.30;12.80;;;;;;;3.10;95.24;97930.20;106109;1257;60543;-81
2024/01/18 09:12:22;;;;;;;16.30;13.00;;;;;;;3.03;95.23;97928.52;106324;1253;72571;-80
2024/01/18 09:14:50;;;;;;;14.80;11.70;;;;;;;3.06;94.98;97924.66;106820;1258;70425;-81
2024/01/18 09:17:17;;;;;;;18.10;12.60;;;;;;;3.11;95.19;97923.09;106244;1257;73088;-82
2024/01/18 09:19:45;;;;;;;17.00;13.90;;;;;;;3.10;94.97;97908.33;106125;1253;60444;-82
2024/01/18 09:22:13;;;;;;;17.00;12.50;;;;;;;3.03;95.01;97910.34;106268;1253;62061;-83
2024/01/18 09:24:42;;;;;;;15.40;11.80;;;;;;;3.06;95.09;97918.52;106787;1253;72749;-85
2024/01/18 09:27:11;;;;;;;18.20;13.80;;;;;;;3.09;94.79;97909.80;108999;1253;69508;-83
2024/01/18 09:29:38;;;;;;;15.90;13.60;;;;;;;3.11;94.61;97909.60;109274;1253;73129;-85
2024/01/18 09:32:06;;;;;;;17.10;13.30;;;;;;;3.05;94.95;97900.83;109200;1253;60974;-85
2024/01/18 09:34:33;;;;;;;17.50;14.10;;;;;;;3.09;94.99;97906.39;109172;1253;59221;-84
2024/01/18 09:37:02;;;;;;;15.70;12.60;;;;;;;3.14;94.71;97909.51;108315;1253;74469;-83
2024/01/18 09:39:31;;;;;;;16.50;13.70;;;;;;;3.17;94.71;97909.67;107066;1253;71445;-85
2024/01/18 09:42:03;;;;;;;15.70;12.40;;;;;;;3.12;94.55;97894.74;108790;1253;71486;-85
2024/01/18 09:44:31;;;;;;;16.40;12.70;;;;;;;3.13;94.53;97891.50;107033;1258;60585;-76
2024/01/18 09:47:01;;;;;;;18.40;13.70;;;;;;;3.19;94.18;97900.98;105685;1254;60436;-76
2024/01/18 09:49:33;;;;;;;19.30;14.80;;;;;;;3.12;94.38;97899.70;105876;1253;74022;-78
2024/01/18 09:52:01;;;;;;;17.20;14.70;;;;;;;3.07;94.38;97879.77;105812;1253;69042;-77
2024/01/18 09:54:29;;;;;;;17.70;14.00;;;;;;;3.13;94.40;97866.86;105832;1254;72729;-78
2024/01/18 09:56:59;;;;;;;23.00;16.00;;;;;;;3.13;94.48;97873.92;105988;1253;61279;-78
2024/01/18 09:59:27;;;;;;;20.10;15.20;;;;;;;3.08;94.57;97862.09;105974;1254;60943;-78
2024/01/18 10:01:56;;;;;;;18.00;14.40;;;;;;;3.12;94.29;97872.94;106458;1255;72683;-80
2024/01/18 10:04:27;;;;;;;20.70;15.60;;;;;;;3.17;94.32;97853.00;106725;1256;71320;-77
2024/01/18 10:06:56;;;;;;;22.60;15.60;;;;;;;3.14;94.31;97854.38;106678;1257;74989;-77
2024/01/18 10:09:28;;;;;;;18.40;15.50;;;;;;;3.17;94.13;97850.92;106426;1258;61840;-77
2024/01/18 10:11:55;;;;;;;21.00;14.70;;;;;;;3.24;93.95;97853.42;106804;1254;64210;-77
2024/01/18 10:14:52;;;;;;;20.50;16.80;;;;;;;3.27;93.68;97845.42;106390;1266;74959;-79
2024/01/18 10:17:21;;;;;;;16.40;12.80;;;;;;;3.28;93.54;97827.51;106596;1258;71064;-77
2024/01/18 10:19:51;;;;;;;19.80;16.10;;;;;;;3.36;93.24;97825.95;107437;1253;73462;-77
2024/01/18 10:22:21;;;;;;;21.00;16.50;;;;;;;3.45;93.10;97830.04;108437;1253;62310;-76
2024/01/18 10:24:49;;;;;;;18.60;14.70;;;;;;;3.43;93.04;97819.59;108755;1252;60327;-76
2024/01/18 10:27:20;;;;;;;17.60;14.20;;;;;;;3.48;92.67;97826.80;106790;1258;73058;-79
2024/01/18 10:29:51;;;;;;;17.70;14.90;;;;;;;3.54;92.00;97827.92;106581;1253;69360;-79
2024/01/18 10:32:19;;;;;;;19.90;14.80;;;;;;;3.52;92.24;97819.58;106405;1258;71524;-78
2024/01/18 10:34:47;;;;;;;18.90;15.00;;;;;;;3.53;92.32;97809.54;106004;1253;61005;-80
2024/01/18 10:37:18;;;;;;;17.90;14.50;;;;;;;3.60;91.68;97813.29;106022;1254;61011;-79
2024/01/18 10:39:47;;;;;;;20.70;16.60;;;;;;;3.59;91.24;97806.55;106022;1253;73908;-76
2024/01/18 10:42:16;;;;;;;25.30;14.90;;;;;;;3.54;91.38;97802.52;105766;1253;71795;-74
2024/01/18 10:44:45;;;;;;;18.80;15.00;;;;;;;3.57;91.55;97802.05;105885;1258;72996;-76
2024/01/18 10:47:13;;;;;;;20.70;15.90;;;;;;;3.62;91.27;97799.42;106033;1254;61842;-75
2024/01/18 10:49:41;;;;;;;19.50;16.50;;;;;;;3.57;91.55;97796.63;105939;1253;59554;-75
2024/01/18 10:52:10;;;;;;;22.80;15.90;;;;;;;3.54;91.89;97795.58;105710;1260;74165;-74
2024/01/18 10:54:38;;;;;;;24.00;16.20;;;;;;;3.61;91.62;97795.69;106099;1253;72557;-77
2024/01/18 10:57:21;;;;;;;22.70;16.90;;;;;;;3.66;91.27;97797.69;106224;1254;73617;-75
2024/01/18 10:59:51;;;;;;;23.80;17.90;;;;;;;3.59;91.25;97800.59;106058;1253;60504;-75
2024/01/18 11:02:20;;;;;;;20.20;15.90;;;;;;;3.53;91.04;97786.60;106260;1259;60614;-76
2024/01/18 11:04:48;;;;;;;22.70;17.20;;;;;;;3.53;91.21;97779.38;106269;1260;76186;-77
2024/01/18 11:07:19;;;;;;;23.20;17.60;;;;;;;3.48;91.58;97768.93;105847;1259;69269;-78
2024/01/18 11:09:47;;;;;;;22.00;16.50;;;;;;;3.43;91.65;97767.61;106093;1258;74635;-76
2024/01/18 11:12:15;;;;;;;18.90;15.90;;;;;;;3.47;91.60;97762.97;106017;1259;62161;-76
2024/01/18 11:14:42;;;;;;;19.80;15.90;;;;;;;3.45;91.78;97772.42;106342;1260;60886;-78
2024/01/18 11:17:17;;;;;;;22.40;16.10;;;;;;;3.36;91.91;97772.42;106737;1253;72656;-79
2024/01/18 11:19:45;;;;;;;21.20;16.70;;;;;;;3.36;92.13;97759.08;108481;1260;69006;-77
2024/01/18 11:22:26;;;;;;;25.40;18.00;;;;;;;3.40;92.13;97764.08;107825;1256;71960;-76
2024/01/18 11:25:05;;;;;;;25.00;17.80;;;;;;;3.34;92.28;97757.14;105945;1258;60461;-79
2024/01/18 11:27:39;;;;;;;23.80;17.20;;;;;;;3.31;92.45;97744.20;106006;1253;60521;-79